Hauptseite
METAR-TAF:

METAR-TAF

Flughäfen :

Flughafen Gorna Orjachowiza

Weliko Tarnowo, Bulgarien

Breite: 43-09N, Länge: 025-36E, Höhe: 87 m

Beobachtung

Neuester Wetterbericht von vor 24 Minuten, um 03:30 UTC
Windstille
Temperatur 13°C
Luftfeuchtigkeit 100%
Luftdruck 1014 hPa
Sichtweite: 1900 m

METAR: LBGO 160330Z AUTO 00000KT 9999 1900E FEW005/// 13/13 Q1014 TEMPO 1500 BR

Zeit: 06:54 (03:54 UTC)

Prognose

Neuester Wetterbericht von vor 4 Stunden und 54 Minuten, um 23:00 UTC
Gültige Prognose vom 16 um 00 UTC bis 16 um 24 UTC
Wind 4 kt aus unterschiedlichen Richtungen
Sichtweite 10 km oder mehr
keine Wolken unter 1500 m und keine Kumulonimbus oder Gewitterwolken
Zeitweise
vom 16 um 02 UTC bis 16 um 05 UTC
Sichtweite: 4000 m
feuchter Dunst
Übergehend zu
vom 16 um 08 UTC bis 16 um 10 UTC
Wind 10 kt aus Ost/Nordost

TAF: LBGO 152300Z 1600/1624 VRB04KT CAVOK TEMPO 1602/1605 4000 BR BECMG 1608/1610 06010KT

Wetterbeobachtungen und Prognosen von mehr als 4000 Flughäfen (METAR und TAF Bericht).

Die verfügbaren Stationen werden durch gelbe und rote Markierungen auf der Karte dargestellt.

Führen Sie die Maus auf sie, um den Namen der Station zu sehen.

Darauf klicken, um die Beobachtung von Wetterbeobachtungen und Prognosen zu sehen.

Um die Karte zu ändern : klicken Sie auf den grünen Tasten mit einem schwarzen Kreuz Zum Vergrößern, auf den grünen Button mit einem Gedankenstrich zu verkleinern, oder auf die grünen Pfeile für benachbarte Karten.


METAR-TAF: